sensor_id;sensor_type;location;lat;lon;timestamp;pressure;altitude;pressure_sealevel;temperature;humidity
51524;BME280;37610;51.790;21.590;2022-09-27T00:01:18;98872.45;;;12.44;77.33
51524;BME280;37610;51.790;21.590;2022-09-27T00:05:20;98876.64;;;12.40;77.27
51524;BME280;37610;51.790;21.590;2022-09-27T00:09:21;98878.43;;;12.34;77.19
51524;BME280;37610;51.790;21.590;2022-09-27T00:13:23;98873.58;;;12.35;77.21
51524;BME280;37610;51.790;21.590;2022-09-27T00:17:24;98870.35;;;12.35;77.00
51524;BME280;37610;51.790;21.590;2022-09-27T00:21:27;98864.67;;;12.34;77.04
51524;BME280;37610;51.790;21.590;2022-09-27T00:25:30;98858.31;;;12.28;77.00
51524;BME280;37610;51.790;21.590;2022-09-27T00:29:32;98857.38;;;12.24;77.09
51524;BME280;37610;51.790;21.590;2022-09-27T00:33:34;98853.96;;;12.20;76.90
51524;BME280;37610;51.790;21.590;2022-09-27T00:37:35;98851.67;;;12.15;76.76
51524;BME280;37610;51.790;21.590;2022-09-27T00:41:37;98844.36;;;12.08;76.91
51524;BME280;37610;51.790;21.590;2022-09-27T00:45:39;98842.19;;;12.04;76.95
51524;BME280;37610;51.790;21.590;2022-09-27T00:50:09;98842.03;;;12.03;76.86
51524;BME280;37610;51.790;21.590;2022-09-27T00:54:16;98835.85;;;11.99;76.84
51524;BME280;37610;51.790;21.590;2022-09-27T00:58:23;98832.98;;;11.98;76.90
51524;BME280;37610;51.790;21.590;2022-09-27T01:02:27;98826.20;;;11.96;76.80
51524;BME280;37610;51.790;21.590;2022-09-27T01:06:29;98827.65;;;11.94;76.76
51524;BME280;37610;51.790;21.590;2022-09-27T01:10:36;98826.12;;;11.89;76.63
51524;BME280;37610;51.790;21.590;2022-09-27T01:19:03;98823.84;;;11.85;76.69
51524;BME280;37610;51.790;21.590;2022-09-27T01:40:32;98804.51;;;11.61;76.89
51524;BME280;37610;51.790;21.590;2022-09-27T01:48:46;98797.56;;;11.58;77.03
51524;BME280;37610;51.790;21.590;2022-09-27T01:52:53;98799.62;;;11.59;77.07
51524;BME280;37610;51.790;21.590;2022-09-27T01:56:57;98794.97;;;11.59;76.96
51524;BME280;37610;51.790;21.590;2022-09-27T02:01:01;98789.36;;;11.58;77.07
51524;BME280;37610;51.790;21.590;2022-09-27T02:05:05;98790.05;;;11.58;77.13
51524;BME280;37610;51.790;21.590;2022-09-27T02:09:13;98793.23;;;11.59;77.13
51524;BME280;37610;51.790;21.590;2022-09-27T02:13:21;98797.08;;;11.59;77.12
51524;BME280;37610;51.790;21.590;2022-09-27T02:17:43;98802.80;;;11.59;77.18
51524;BME280;37610;51.790;21.590;2022-09-27T02:30:12;98803.46;;;11.44;77.83
51524;BME280;37610;51.790;21.590;2022-09-27T02:34:26;98802.83;;;11.43;77.92
51524;BME280;37610;51.790;21.590;2022-09-27T02:38:30;98795.64;;;11.43;77.90
51524;BME280;37610;51.790;21.590;2022-09-27T02:42:32;98796.40;;;11.45;78.00
51524;BME280;37610;51.790;21.590;2022-09-27T02:59:43;98770.52;;;11.58;78.04
51524;BME280;37610;51.790;21.590;2022-09-27T03:03:54;98767.71;;;11.62;78.05
51524;BME280;37610;51.790;21.590;2022-09-27T03:07:59;98760.84;;;11.65;78.00
51524;BME280;37610;51.790;21.590;2022-09-27T03:12:01;98757.73;;;11.68;78.10
51524;BME280;37610;51.790;21.590;2022-09-27T03:16:02;98752.06;;;11.70;78.13
51524;BME280;37610;51.790;21.590;2022-09-27T03:20:04;98751.74;;;11.73;78.07
51524;BME280;37610;51.790;21.590;2022-09-27T03:24:07;98746.59;;;11.75;78.02
51524;BME280;37610;51.790;21.590;2022-09-27T03:28:09;98744.00;;;11.75;77.99
51524;BME280;37610;51.790;21.590;2022-09-27T03:32:10;98735.27;;;11.77;77.96
51524;BME280;37610;51.790;21.590;2022-09-27T03:36:12;98729.80;;;11.79;77.92
51524;BME280;37610;51.790;21.590;2022-09-27T03:40:14;98728.41;;;11.83;77.91
51524;BME280;37610;51.790;21.590;2022-09-27T03:44:15;98731.60;;;11.85;77.88
51524;BME280;37610;51.790;21.590;2022-09-27T03:48:17;98735.04;;;11.85;77.78
51524;BME280;37610;51.790;21.590;2022-09-27T03:52:18;98731.73;;;11.87;77.90
51524;BME280;37610;51.790;21.590;2022-09-27T03:56:20;98728.03;;;11.88;77.79
51524;BME280;37610;51.790;21.590;2022-09-27T04:00:21;98731.05;;;11.89;77.74
51524;BME280;37610;51.790;21.590;2022-09-27T04:04:24;98731.56;;;11.92;77.78
51524;BME280;37610;51.790;21.590;2022-09-27T04:08:26;98728.45;;;11.94;77.92
51524;BME280;37610;51.790;21.590;2022-09-27T04:12:27;98728.34;;;11.94;77.97
51524;BME280;37610;51.790;21.590;2022-09-27T04:16:30;98724.06;;;11.94;78.08
51524;BME280;37610;51.790;21.590;2022-09-27T04:20:34;98725.02;;;11.94;78.16
51524;BME280;37610;51.790;21.590;2022-09-27T04:24:36;98720.96;;;11.96;78.22
51524;BME280;37610;51.790;21.590;2022-09-27T04:28:37;98719.05;;;11.96;78.20
51524;BME280;37610;51.790;21.590;2022-09-27T04:32:43;98716.09;;;11.97;78.36
51524;BME280;37610;51.790;21.590;2022-09-27T04:36:45;98715.64;;;11.98;78.40
51524;BME280;37610;51.790;21.590;2022-09-27T04:40:46;98714.08;;;11.97;78.49
51524;BME280;37610;51.790;21.590;2022-09-27T04:44:49;98712.48;;;11.97;78.56
51524;BME280;37610;51.790;21.590;2022-09-27T04:48:50;98711.38;;;11.97;78.72
51524;BME280;37610;51.790;21.590;2022-09-27T04:52:53;98713.98;;;11.97;78.80
51524;BME280;37610;51.790;21.590;2022-09-27T04:56:55;98710.86;;;11.98;78.81
51524;BME280;37610;51.790;21.590;2022-09-27T05:00:56;98708.29;;;11.98;79.02
51524;BME280;37610;51.790;21.590;2022-09-27T05:04:58;98702.35;;;11.98;79.10
51524;BME280;37610;51.790;21.590;2022-09-27T05:09:01;98702.05;;;11.99;79.10
51524;BME280;37610;51.790;21.590;2022-09-27T05:13:02;98699.64;;;12.02;79.18
51524;BME280;37610;51.790;21.590;2022-09-27T05:17:04;98699.75;;;12.03;79.24
51524;BME280;37610;51.790;21.590;2022-09-27T05:21:08;98699.50;;;12.05;79.32
51524;BME280;37610;51.790;21.590;2022-09-27T05:25:10;98699.62;;;12.07;79.33
51524;BME280;37610;51.790;21.590;2022-09-27T05:29:12;98701.57;;;12.11;79.34
51524;BME280;37610;51.790;21.590;2022-09-27T05:33:13;98696.30;;;12.15;79.37
51524;BME280;37610;51.790;21.590;2022-09-27T05:37:15;98688.65;;;12.19;79.43
51524;BME280;37610;51.790;21.590;2022-09-27T05:41:17;98686.39;;;12.21;79.43
51524;BME280;37610;51.790;21.590;2022-09-27T05:45:19;98684.15;;;12.19;79.46
51524;BME280;37610;51.790;21.590;2022-09-27T05:49:22;98686.85;;;12.18;79.40
51524;BME280;37610;51.790;21.590;2022-09-27T05:53:23;98690.98;;;12.19;79.41
51524;BME280;37610;51.790;21.590;2022-09-27T05:57:25;98686.77;;;12.22;79.73
51524;BME280;37610;51.790;21.590;2022-09-27T06:01:26;98686.35;;;12.24;79.56
51524;BME280;37610;51.790;21.590;2022-09-27T06:05:30;98686.89;;;12.32;79.72
51524;BME280;37610;51.790;21.590;2022-09-27T06:09:32;98682.19;;;12.34;79.46
51524;BME280;37610;51.790;21.590;2022-09-27T06:13:34;98683.14;;;12.34;79.35
51524;BME280;37610;51.790;21.590;2022-09-27T06:17:39;98684.34;;;12.37;79.36
51524;BME280;37610;51.790;21.590;2022-09-27T06:21:40;98683.98;;;12.40;79.37
51524;BME280;37610;51.790;21.590;2022-09-27T06:25:42;98688.78;;;12.38;79.10
51524;BME280;37610;51.790;21.590;2022-09-27T06:29:43;98693.59;;;12.37;79.02
51524;BME280;37610;51.790;21.590;2022-09-27T06:33:45;98696.30;;;12.37;79.11
51524;BME280;37610;51.790;21.590;2022-09-27T06:37:47;98695.97;;;12.38;79.03
51524;BME280;37610;51.790;21.590;2022-09-27T06:41:52;98699.76;;;12.39;79.08
51524;BME280;37610;51.790;21.590;2022-09-27T06:46:01;98698.60;;;12.41;79.15
51524;BME280;37610;51.790;21.590;2022-09-27T06:50:06;98696.39;;;12.43;79.04
51524;BME280;37610;51.790;21.590;2022-09-27T06:54:08;98702.19;;;12.47;79.00
51524;BME280;37610;51.790;21.590;2022-09-27T06:58:10;98697.54;;;12.48;78.96
51524;BME280;37610;51.790;21.590;2022-09-27T07:02:31;98693.59;;;12.50;79.03
51524;BME280;37610;51.790;21.590;2022-09-27T07:06:32;98702.16;;;12.52;78.78
51524;BME280;37610;51.790;21.590;2022-09-27T07:10:35;98711.08;;;12.53;78.52
51524;BME280;37610;51.790;21.590;2022-09-27T07:14:38;98712.98;;;12.54;78.25
51524;BME280;37610;51.790;21.590;2022-09-27T07:18:41;98720.71;;;12.54;78.18
51524;BME280;37610;51.790;21.590;2022-09-27T07:22:42;98727.20;;;12.56;78.19
51524;BME280;37610;51.790;21.590;2022-09-27T07:26:46;98722.39;;;12.59;78.12
51524;BME280;37610;51.790;21.590;2022-09-27T07:30:48;98719.06;;;12.61;78.21
51524;BME280;37610;51.790;21.590;2022-09-27T07:40:10;98729.52;;;12.65;78.16
51524;BME280;37610;51.790;21.590;2022-09-27T07:44:12;98732.09;;;12.70;78.12
51524;BME280;37610;51.790;21.590;2022-09-27T07:48:16;98730.02;;;12.71;77.97
51524;BME280;37610;51.790;21.590;2022-09-27T07:52:19;98725.10;;;12.70;78.18
51524;BME280;37610;51.790;21.590;2022-09-27T07:56:20;98708.64;;;12.72;78.23
51524;BME280;37610;51.790;21.590;2022-09-27T08:00:22;98693.19;;;12.74;78.39
51524;BME280;37610;51.790;21.590;2022-09-27T08:04:24;98690.85;;;12.74;78.51
51524;BME280;37610;51.790;21.590;2022-09-27T08:08:26;98687.27;;;12.78;78.69
51524;BME280;37610;51.790;21.590;2022-09-27T08:12:28;98691.55;;;12.86;78.60
51524;BME280;37610;51.790;21.590;2022-09-27T08:16:33;98698.95;;;12.94;78.50
51524;BME280;37610;51.790;21.590;2022-09-27T08:20:35;98704.58;;;12.98;78.18
51524;BME280;37610;51.790;21.590;2022-09-27T08:24:37;98703.86;;;13.02;78.06
51524;BME280;37610;51.790;21.590;2022-09-27T08:28:38;98708.90;;;13.04;77.82
51524;BME280;37610;51.790;21.590;2022-09-27T08:32:40;98709.65;;;13.03;77.64
51524;BME280;37610;51.790;21.590;2022-09-27T08:36:42;98707.14;;;13.01;77.50
51524;BME280;37610;51.790;21.590;2022-09-27T08:49:08;98705.04;;;13.11;77.77
51524;BME280;37610;51.790;21.590;2022-09-27T08:57:13;98707.09;;;13.19;77.69
51524;BME280;37610;51.790;21.590;2022-09-27T09:01:18;98709.96;;;13.24;77.64
51524;BME280;37610;51.790;21.590;2022-09-27T09:05:31;98702.77;;;13.29;77.51
51524;BME280;37610;51.790;21.590;2022-09-27T09:09:51;98698.96;;;13.33;77.48
51524;BME280;37610;51.790;21.590;2022-09-27T09:14:16;98705.71;;;13.37;77.34
51524;BME280;37610;51.790;21.590;2022-09-27T09:31:42;98690.90;;;13.52;77.48
51524;BME280;37610;51.790;21.590;2022-09-27T09:35:58;98687.58;;;13.66;77.40
51524;BME280;37610;51.790;21.590;2022-09-27T09:40:30;98689.72;;;13.74;77.09
51524;BME280;37610;51.790;21.590;2022-09-27T09:48:52;98687.34;;;13.86;76.68
51524;BME280;37610;51.790;21.590;2022-09-27T09:53:18;98684.84;;;13.86;76.48
51524;BME280;37610;51.790;21.590;2022-09-27T09:57:37;98687.45;;;13.90;76.33
51524;BME280;37610;51.790;21.590;2022-09-27T10:01:44;98687.13;;;13.90;76.27
51524;BME280;37610;51.790;21.590;2022-09-27T10:05:46;98686.91;;;13.89;76.02
51524;BME280;37610;51.790;21.590;2022-09-27T10:09:53;98675.83;;;13.89;76.17
51524;BME280;37610;51.790;21.590;2022-09-27T10:13:56;98674.87;;;13.93;76.11
51524;BME280;37610;51.790;21.590;2022-09-27T10:17:58;98682.09;;;13.98;75.83
51524;BME280;37610;51.790;21.590;2022-09-27T10:22:01;98668.45;;;13.99;75.56
51524;BME280;37610;51.790;21.590;2022-09-27T10:26:04;98653.05;;;14.02;75.66
51524;BME280;37610;51.790;21.590;2022-09-27T10:30:06;98653.91;;;14.06;75.89
51524;BME280;37610;51.790;21.590;2022-09-27T10:34:41;98662.23;;;14.11;75.82
51524;BME280;37610;51.790;21.590;2022-09-27T10:38:51;98654.80;;;14.17;75.60
51524;BME280;37610;51.790;21.590;2022-09-27T10:42:54;98653.45;;;14.22;75.36
51524;BME280;37610;51.790;21.590;2022-09-27T10:46:59;98653.09;;;14.25;75.30
51524;BME280;37610;51.790;21.590;2022-09-27T10:51:04;98652.60;;;14.27;75.01
51524;BME280;37610;51.790;21.590;2022-09-27T10:55:22;98648.39;;;14.28;75.05
51524;BME280;37610;51.790;21.590;2022-09-27T10:59:26;98639.91;;;14.34;75.02
51524;BME280;37610;51.790;21.590;2022-09-27T11:03:34;98631.46;;;14.42;75.02
51524;BME280;37610;51.790;21.590;2022-09-27T11:07:51;98626.35;;;14.48;74.84
51524;BME280;37610;51.790;21.590;2022-09-27T11:12:11;98622.20;;;14.53;74.43
51524;BME280;37610;51.790;21.590;2022-09-27T11:20:43;98615.31;;;14.57;73.91
51524;BME280;37610;51.790;21.590;2022-09-27T11:25:15;98611.19;;;14.58;74.21
51524;BME280;37610;51.790;21.590;2022-09-27T11:29:31;98602.89;;;14.59;74.13
51524;BME280;37610;51.790;21.590;2022-09-27T11:33:52;98604.52;;;14.63;73.95
51524;BME280;37610;51.790;21.590;2022-09-27T11:46:40;98591.98;;;14.63;73.37
51524;BME280;37610;51.790;21.590;2022-09-27T11:50:45;98586.52;;;14.63;73.57
51524;BME280;37610;51.790;21.590;2022-09-27T11:55:09;98590.29;;;14.63;73.47
51524;BME280;37610;51.790;21.590;2022-09-27T12:07:51;98590.34;;;14.61;73.09
51524;BME280;37610;51.790;21.590;2022-09-27T12:12:31;98588.01;;;14.61;73.03
51524;BME280;37610;51.790;21.590;2022-09-27T12:16:36;98585.94;;;14.59;72.83
51524;BME280;37610;51.790;21.590;2022-09-27T12:20:40;98586.48;;;14.57;72.83
51524;BME280;37610;51.790;21.590;2022-09-27T12:24:42;98581.48;;;14.58;73.14
51524;BME280;37610;51.790;21.590;2022-09-27T12:29:01;98576.31;;;14.61;72.78
51524;BME280;37610;51.790;21.590;2022-09-27T12:33:22;98573.97;;;14.63;72.94
51524;BME280;37610;51.790;21.590;2022-09-27T12:41:35;98569.08;;;14.77;72.70
51524;BME280;37610;51.790;21.590;2022-09-27T12:50:16;98566.59;;;14.85;72.25
51524;BME280;37610;51.790;21.590;2022-09-27T12:59:01;98550.19;;;15.00;72.27
51524;BME280;37610;51.790;21.590;2022-09-27T13:12:04;98537.54;;;15.37;71.84
51524;BME280;37610;51.790;21.590;2022-09-27T13:16:11;98526.05;;;15.43;71.49
51524;BME280;37610;51.790;21.590;2022-09-27T13:20:36;98527.73;;;15.50;71.16
51524;BME280;37610;51.790;21.590;2022-09-27T13:37:40;98506.55;;;15.90;70.10
51524;BME280;37610;51.790;21.590;2022-09-27T13:45:52;98513.34;;;15.96;69.60
51524;BME280;37610;51.790;21.590;2022-09-27T13:58:41;98515.15;;;15.81;68.79
51524;BME280;37610;51.790;21.590;2022-09-27T14:02:58;98515.80;;;15.73;68.36
51524;BME280;37610;51.790;21.590;2022-09-27T14:07:02;98513.31;;;15.61;68.11
51524;BME280;37610;51.790;21.590;2022-09-27T14:11:12;98506.90;;;15.53;68.63
51524;BME280;37610;51.790;21.590;2022-09-27T14:15:22;98503.86;;;15.44;68.99
51524;BME280;37610;51.790;21.590;2022-09-27T14:19:25;98507.14;;;15.33;68.92
51524;BME280;37610;51.790;21.590;2022-09-27T14:23:27;98507.00;;;15.24;69.04
51524;BME280;37610;51.790;21.590;2022-09-27T14:27:34;98507.58;;;15.18;69.24
51524;BME280;37610;51.790;21.590;2022-09-27T14:31:36;98505.83;;;15.10;69.26
51524;BME280;37610;51.790;21.590;2022-09-27T14:35:44;98504.61;;;15.01;69.35
51524;BME280;37610;51.790;21.590;2022-09-27T14:40:18;98501.91;;;14.93;69.38
51524;BME280;37610;51.790;21.590;2022-09-27T14:44:20;98496.44;;;14.84;69.50
51524;BME280;37610;51.790;21.590;2022-09-27T14:48:29;98496.98;;;14.81;69.56
51524;BME280;37610;51.790;21.590;2022-09-27T14:52:33;98494.26;;;14.76;69.58
51524;BME280;37610;51.790;21.590;2022-09-27T14:56:37;98500.10;;;14.74;69.71
51524;BME280;37610;51.790;21.590;2022-09-27T15:00:45;98500.09;;;14.77;69.86
51524;BME280;37610;51.790;21.590;2022-09-27T15:04:48;98500.50;;;14.80;69.93
51524;BME280;37610;51.790;21.590;2022-09-27T15:08:51;98501.23;;;14.85;69.96
51524;BME280;37610;51.790;21.590;2022-09-27T15:12:54;98503.80;;;14.88;69.89
51524;BME280;37610;51.790;21.590;2022-09-27T15:17:00;98494.41;;;14.86;69.68
51524;BME280;37610;51.790;21.590;2022-09-27T15:21:15;98488.70;;;14.81;69.64
51524;BME280;37610;51.790;21.590;2022-09-27T15:25:37;98485.80;;;14.76;69.69
51524;BME280;37610;51.790;21.590;2022-09-27T15:29:50;98484.08;;;14.73;69.80
51524;BME280;37610;51.790;21.590;2022-09-27T15:33:54;98477.98;;;14.69;69.89
51524;BME280;37610;51.790;21.590;2022-09-27T15:42:12;98470.21;;;14.61;70.20
51524;BME280;37610;51.790;21.590;2022-09-27T15:54:28;98453.01;;;14.79;70.30
51524;BME280;37610;51.790;21.590;2022-09-27T15:58:31;98449.77;;;14.77;70.11
51524;BME280;37610;51.790;21.590;2022-09-27T16:02:35;98446.09;;;14.71;70.05
51524;BME280;37610;51.790;21.590;2022-09-27T16:06:37;98446.66;;;14.65;70.01
51524;BME280;37610;51.790;21.590;2022-09-27T16:10:43;98448.56;;;14.57;70.19
51524;BME280;37610;51.790;21.590;2022-09-27T16:14:45;98447.94;;;14.48;70.26
51524;BME280;37610;51.790;21.590;2022-09-27T16:18:47;98446.61;;;14.39;70.35
51524;BME280;37610;51.790;21.590;2022-09-27T16:22:50;98449.07;;;14.29;70.49
51524;BME280;37610;51.790;21.590;2022-09-27T16:26:52;98451.13;;;14.20;70.52
51524;BME280;37610;51.790;21.590;2022-09-27T16:30:53;98447.98;;;14.09;70.81
51524;BME280;37610;51.790;21.590;2022-09-27T16:34:55;98442.89;;;13.96;70.87
51524;BME280;37610;51.790;21.590;2022-09-27T16:38:57;98444.23;;;13.77;71.00
51524;BME280;37610;51.790;21.590;2022-09-27T16:42:59;98439.74;;;13.65;71.23
51524;BME280;37610;51.790;21.590;2022-09-27T16:47:02;98435.52;;;13.58;71.69
51524;BME280;37610;51.790;21.590;2022-09-27T16:51:05;98431.40;;;13.49;71.81
51524;BME280;37610;51.790;21.590;2022-09-27T16:55:26;98432.16;;;13.41;72.11
51524;BME280;37610;51.790;21.590;2022-09-27T16:59:29;98432.11;;;13.34;72.28
51524;BME280;37610;51.790;21.590;2022-09-27T17:03:30;98438.02;;;13.27;72.47
51524;BME280;37610;51.790;21.590;2022-09-27T17:07:32;98437.59;;;13.18;72.51
51524;BME280;37610;51.790;21.590;2022-09-27T17:11:34;98437.11;;;13.08;72.62
51524;BME280;37610;51.790;21.590;2022-09-27T17:15:36;98435.91;;;13.02;72.78
51524;BME280;37610;51.790;21.590;2022-09-27T17:19:37;98439.33;;;12.95;72.83
51524;BME280;37610;51.790;21.590;2022-09-27T17:23:39;98438.08;;;12.88;72.91
51524;BME280;37610;51.790;21.590;2022-09-27T17:27:41;98438.15;;;12.81;73.12
51524;BME280;37610;51.790;21.590;2022-09-27T17:31:43;98441.20;;;12.77;73.30
51524;BME280;37610;51.790;21.590;2022-09-27T17:35:45;98440.61;;;12.69;73.35
51524;BME280;37610;51.790;21.590;2022-09-27T17:39:47;98446.22;;;12.61;73.33
51524;BME280;37610;51.790;21.590;2022-09-27T17:43:57;98442.64;;;12.47;73.32
51524;BME280;37610;51.790;21.590;2022-09-27T17:47:59;98439.17;;;12.37;73.60
51524;BME280;37610;51.790;21.590;2022-09-27T17:52:19;98437.98;;;12.32;73.47
51524;BME280;37610;51.790;21.590;2022-09-27T17:56:21;98438.92;;;12.25;73.69
51524;BME280;37610;51.790;21.590;2022-09-27T18:00:23;98440.72;;;12.20;73.84
51524;BME280;37610;51.790;21.590;2022-09-27T18:04:25;98443.67;;;12.19;74.03
51524;BME280;37610;51.790;21.590;2022-09-27T18:08:27;98438.64;;;12.18;74.13
51524;BME280;37610;51.790;21.590;2022-09-27T18:12:30;98439.27;;;12.19;74.30
51524;BME280;37610;51.790;21.590;2022-09-27T18:16:36;98438.60;;;12.21;74.45
51524;BME280;37610;51.790;21.590;2022-09-27T18:20:39;98439.96;;;12.21;74.52
51524;BME280;37610;51.790;21.590;2022-09-27T18:24:41;98441.14;;;12.21;74.55
51524;BME280;37610;51.790;21.590;2022-09-27T18:28:43;98440.34;;;12.21;74.50
51524;BME280;37610;51.790;21.590;2022-09-27T18:32:44;98445.33;;;12.19;74.53
51524;BME280;37610;51.790;21.590;2022-09-27T18:36:46;98440.38;;;12.17;74.52
51524;BME280;37610;51.790;21.590;2022-09-27T18:40:47;98444.83;;;12.16;74.64
51524;BME280;37610;51.790;21.590;2022-09-27T18:44:49;98448.17;;;12.16;74.72
51524;BME280;37610;51.790;21.590;2022-09-27T18:48:52;98449.01;;;12.15;74.73
51524;BME280;37610;51.790;21.590;2022-09-27T18:52:53;98451.54;;;12.14;74.78
51524;BME280;37610;51.790;21.590;2022-09-27T18:56:55;98449.52;;;12.14;74.86
51524;BME280;37610;51.790;21.590;2022-09-27T19:00:59;98452.92;;;12.17;74.98
51524;BME280;37610;51.790;21.590;2022-09-27T19:05:01;98448.86;;;12.20;75.03
51524;BME280;37610;51.790;21.590;2022-09-27T19:09:04;98448.02;;;12.22;75.01
51524;BME280;37610;51.790;21.590;2022-09-27T19:13:06;98444.22;;;12.23;75.02
51524;BME280;37610;51.790;21.590;2022-09-27T19:17:08;98442.57;;;12.22;75.03
51524;BME280;37610;51.790;21.590;2022-09-27T19:21:12;98444.42;;;12.21;75.08
51524;BME280;37610;51.790;21.590;2022-09-27T19:25:14;98437.17;;;12.24;75.16
51524;BME280;37610;51.790;21.590;2022-09-27T19:29:16;98426.23;;;12.26;75.21
51524;BME280;37610;51.790;21.590;2022-09-27T19:33:17;98425.49;;;12.29;75.33
51524;BME280;37610;51.790;21.590;2022-09-27T19:37:19;98423.70;;;12.31;75.35
51524;BME280;37610;51.790;21.590;2022-09-27T19:41:20;98419.09;;;12.31;75.42
51524;BME280;37610;51.790;21.590;2022-09-27T19:45:22;98420.58;;;12.34;75.53
51524;BME280;37610;51.790;21.590;2022-09-27T19:49:24;98425.09;;;12.37;75.58
51524;BME280;37610;51.790;21.590;2022-09-27T19:53:28;98417.48;;;12.39;75.66
51524;BME280;37610;51.790;21.590;2022-09-27T19:57:30;98409.86;;;12.42;75.66
51524;BME280;37610;51.790;21.590;2022-09-27T20:01:32;98408.70;;;12.45;75.58
51524;BME280;37610;51.790;21.590;2022-09-27T20:05:33;98412.04;;;12.47;75.62
51524;BME280;37610;51.790;21.590;2022-09-27T20:09:35;98408.06;;;12.48;75.62
51524;BME280;37610;51.790;21.590;2022-09-27T20:13:40;98406.01;;;12.50;75.59
51524;BME280;37610;51.790;21.590;2022-09-27T20:17:41;98401.77;;;12.52;75.63
51524;BME280;37610;51.790;21.590;2022-09-27T20:21:43;98394.32;;;12.53;75.75
51524;BME280;37610;51.790;21.590;2022-09-27T20:25:46;98397.02;;;12.54;75.78
51524;BME280;37610;51.790;21.590;2022-09-27T20:29:48;98393.05;;;12.55;75.85
51524;BME280;37610;51.790;21.590;2022-09-27T20:33:50;98388.66;;;12.56;75.98
51524;BME280;37610;51.790;21.590;2022-09-27T20:37:53;98384.30;;;12.56;75.91
51524;BME280;37610;51.790;21.590;2022-09-27T20:41:54;98379.42;;;12.54;75.88
51524;BME280;37610;51.790;21.590;2022-09-27T20:46:08;98375.66;;;12.56;75.86
51524;BME280;37610;51.790;21.590;2022-09-27T20:50:11;98374.73;;;12.57;75.94
51524;BME280;37610;51.790;21.590;2022-09-27T20:54:13;98368.69;;;12.58;75.81
51524;BME280;37610;51.790;21.590;2022-09-27T20:58:15;98375.35;;;12.59;75.87
51524;BME280;37610;51.790;21.590;2022-09-27T21:02:16;98382.98;;;12.59;75.78
51524;BME280;37610;51.790;21.590;2022-09-27T21:06:18;98384.73;;;12.62;76.19
51524;BME280;37610;51.790;21.590;2022-09-27T21:10:23;98378.60;;;12.63;76.46
51524;BME280;37610;51.790;21.590;2022-09-27T21:14:24;98370.33;;;12.65;76.53
51524;BME280;37610;51.790;21.590;2022-09-27T21:18:26;98362.19;;;12.66;76.71
51524;BME280;37610;51.790;21.590;2022-09-27T21:22:27;98358.63;;;12.66;76.85
51524;BME280;37610;51.790;21.590;2022-09-27T21:26:32;98355.61;;;12.66;76.91
51524;BME280;37610;51.790;21.590;2022-09-27T21:30:34;98366.83;;;12.68;77.03
51524;BME280;37610;51.790;21.590;2022-09-27T21:34:35;98353.48;;;12.68;77.26
51524;BME280;37610;51.790;21.590;2022-09-27T21:38:37;98358.85;;;12.66;77.35
51524;BME280;37610;51.790;21.590;2022-09-27T21:42:40;98350.83;;;12.62;77.63
51524;BME280;37610;51.790;21.590;2022-09-27T21:46:41;98346.02;;;12.59;77.59
51524;BME280;37610;51.790;21.590;2022-09-27T21:50:44;98341.00;;;12.60;77.79
51524;BME280;37610;51.790;21.590;2022-09-27T21:54:45;98338.08;;;12.58;77.93
51524;BME280;37610;51.790;21.590;2022-09-27T21:58:47;98333.16;;;12.54;77.93
51524;BME280;37610;51.790;21.590;2022-09-27T22:02:49;98328.35;;;12.53;78.21
51524;BME280;37610;51.790;21.590;2022-09-27T22:06:50;98325.91;;;12.54;78.20
51524;BME280;37610;51.790;21.590;2022-09-27T22:10:54;98321.55;;;12.57;78.18
51524;BME280;37610;51.790;21.590;2022-09-27T22:14:56;98311.98;;;12.61;78.08
51524;BME280;37610;51.790;21.590;2022-09-27T22:18:58;98310.16;;;12.63;78.03
51524;BME280;37610;51.790;21.590;2022-09-27T22:22:59;98305.30;;;12.66;78.01
51524;BME280;37610;51.790;21.590;2022-09-27T22:27:01;98307.67;;;12.67;78.15
51524;BME280;37610;51.790;21.590;2022-09-27T22:31:03;98303.21;;;12.67;78.03
51524;BME280;37610;51.790;21.590;2022-09-27T22:35:05;98303.07;;;12.67;78.17
51524;BME280;37610;51.790;21.590;2022-09-27T22:39:07;98300.27;;;12.65;78.10
51524;BME280;37610;51.790;21.590;2022-09-27T22:43:09;98298.52;;;12.60;78.10
51524;BME280;37610;51.790;21.590;2022-09-27T22:47:10;98296.67;;;12.58;78.33
51524;BME280;37610;51.790;21.590;2022-09-27T22:51:12;98289.84;;;12.55;78.31
51524;BME280;37610;51.790;21.590;2022-09-27T22:55:13;98285.19;;;12.54;78.73
51524;BME280;37610;51.790;21.590;2022-09-27T22:59:15;98282.38;;;12.52;78.54
51524;BME280;37610;51.790;21.590;2022-09-27T23:03:17;98276.07;;;12.51;78.70
51524;BME280;37610;51.790;21.590;2022-09-27T23:07:19;98274.86;;;12.50;78.72
51524;BME280;37610;51.790;21.590;2022-09-27T23:11:21;98270.30;;;12.52;78.73
51524;BME280;37610;51.790;21.590;2022-09-27T23:15:22;98265.17;;;12.52;78.77
51524;BME280;37610;51.790;21.590;2022-09-27T23:19:24;98264.22;;;12.49;78.65
51524;BME280;37610;51.790;21.590;2022-09-27T23:23:27;98267.50;;;12.49;78.69
51524;BME280;37610;51.790;21.590;2022-09-27T23:27:28;98265.27;;;12.48;78.78
51524;BME280;37610;51.790;21.590;2022-09-27T23:31:42;98268.45;;;12.47;78.91
51524;BME280;37610;51.790;21.590;2022-09-27T23:35:43;98263.36;;;12.45;78.91
51524;BME280;37610;51.790;21.590;2022-09-27T23:39:45;98254.70;;;12.43;78.86
51524;BME280;37610;51.790;21.590;2022-09-27T23:43:46;98259.14;;;12.45;78.96
51524;BME280;37610;51.790;21.590;2022-09-27T23:47:51;98261.30;;;12.47;79.02
51524;BME280;37610;51.790;21.590;2022-09-27T23:51:53;98261.09;;;12.45;78.96
51524;BME280;37610;51.790;21.590;2022-09-27T23:56:04;98258.45;;;12.41;79.25
